createdAt,value
2019-02-16T00:00:47.894Z,82.89
2019-02-16T00:03:20.635Z,83.28
2019-02-16T00:05:51.459Z,83.23
2019-02-16T00:08:22.730Z,83.23
2019-02-16T00:10:53.520Z,82.64
2019-02-16T00:13:24.529Z,82.06
2019-02-16T00:15:55.404Z,81.77
2019-02-16T00:18:26.314Z,81.62
2019-02-16T00:21:03.798Z,81.67
2019-02-16T00:23:29.662Z,81.73
2019-02-16T00:26:00.593Z,81.83
2019-02-16T00:28:31.845Z,81.80
2019-02-16T00:31:02.797Z,81.79
2019-02-16T00:33:33.683Z,81.87
2019-02-16T00:36:04.954Z,82.22
2019-02-16T00:38:37.186Z,82.10
2019-02-16T00:41:08.167Z,82.17
2019-02-16T00:43:39.153Z,82.00
2019-02-16T00:46:09.958Z,82.19
2019-02-16T00:48:41.040Z,82.20
2019-02-16T00:51:13.865Z,82.28
2019-02-16T00:53:45.286Z,82.08
2019-02-16T00:56:16.128Z,82.27
2019-02-16T00:58:46.907Z,81.94
2019-02-16T01:01:17.789Z,82.09
2019-02-16T01:03:48.571Z,82.24
2019-02-16T01:06:19.908Z,81.97
2019-02-16T01:08:50.868Z,81.68
2019-02-16T01:11:21.956Z,81.67
2019-02-16T01:13:52.826Z,82.04
2019-02-16T01:16:23.824Z,82.03
2019-02-16T01:18:54.631Z,81.95
2019-02-16T01:21:25.567Z,81.58
2019-02-16T01:23:56.522Z,81.66
2019-02-16T01:26:27.385Z,82.65
2019-02-16T01:28:58.256Z,82.43
2019-02-16T01:31:29.169Z,82.08
2019-02-16T01:34:00.053Z,82.07
2019-02-16T01:36:30.957Z,82.30
2019-02-16T01:39:01.803Z,82.33
2019-02-16T01:41:34.237Z,81.88
2019-02-16T01:44:05.856Z,81.98
2019-02-16T01:46:36.726Z,82.32
2019-02-16T01:49:07.406Z,82.56
2019-02-16T01:51:38.356Z,82.62
2019-02-16T01:54:09.392Z,82.42
2019-02-16T01:56:40.344Z,82.24
2019-02-16T01:59:11.309Z,82.23
2019-02-16T02:01:42.469Z,82.29
2019-02-16T02:04:13.300Z,82.32
2019-02-16T02:06:44.179Z,82.34
2019-02-16T02:09:15.283Z,82.14
2019-02-16T02:11:46.184Z,81.95
2019-02-16T02:14:17.263Z,82.12
2019-02-16T02:16:48.060Z,82.26
2019-02-16T02:19:20.125Z,82.32
2019-02-16T02:21:50.950Z,82.03
2019-02-16T02:24:21.788Z,82.42
2019-02-16T02:26:52.775Z,82.51
2019-02-16T02:29:23.568Z,82.52
2019-02-16T02:31:54.570Z,82.49
2019-02-16T02:34:25.325Z,82.10
2019-02-16T02:36:56.233Z,81.99
2019-02-16T02:39:27.107Z,81.93
2019-02-16T02:41:58.020Z,81.89
2019-02-16T02:44:28.793Z,81.77
2019-02-16T02:46:59.682Z,82.05
2019-02-16T02:49:30.576Z,82.34
2019-02-16T02:52:02.866Z,82.16
2019-02-16T02:54:33.762Z,82.21
2019-02-16T02:57:04.808Z,81.76
2019-02-16T02:59:35.763Z,82.11
2019-02-16T03:02:07.140Z,82.21
2019-02-16T03:04:37.932Z,82.75
2019-02-16T03:07:08.935Z,82.73
2019-02-16T03:09:39.819Z,82.76
2019-02-16T03:12:10.719Z,82.99
2019-02-16T03:14:41.581Z,82.97
2019-02-16T03:17:12.475Z,82.75
2019-02-16T03:19:45.307Z,82.36
2019-02-16T03:22:16.192Z,82.34
2019-02-16T03:24:46.989Z,82.95
2019-02-16T03:27:37.331Z,83.08
2019-02-16T03:30:42.716Z,83.09
2019-02-16T03:33:57.173Z,82.87
2019-02-16T03:37:02.209Z,82.96
2019-02-16T03:39:39.854Z,82.78
2019-02-16T03:42:10.656Z,83.19
2019-02-16T03:44:41.550Z,83.19
2019-02-16T03:47:12.313Z,82.93
2019-02-16T03:49:43.392Z,83.24
2019-02-16T03:52:14.653Z,83.29
2019-02-16T03:54:45.851Z,83.39
2019-02-16T03:57:16.757Z,83.27
2019-02-16T03:59:47.738Z,83.00
2019-02-16T04:02:19.641Z,82.79
2019-02-16T04:04:50.431Z,83.04
2019-02-16T04:07:21.437Z,82.75
2019-02-16T04:09:52.298Z,82.73
2019-02-16T04:12:23.382Z,82.36
2019-02-16T04:14:54.192Z,82.36
2019-02-16T04:17:25.101Z,82.61
2019-02-16T04:19:55.875Z,82.54
2019-02-16T04:22:26.853Z,83.17
2019-02-16T04:24:57.630Z,83.38
2019-02-16T04:27:28.461Z,83.52
2019-02-16T04:29:59.343Z,83.15
2019-02-16T04:32:30.131Z,83.11
2019-02-16T04:35:01.069Z,83.02
2019-02-16T04:37:31.972Z,82.80
2019-02-16T04:40:02.857Z,82.87
2019-02-16T04:42:34.294Z,82.83
2019-02-16T04:45:05.605Z,82.98
2019-02-16T04:47:36.434Z,82.97
2019-02-16T04:50:07.209Z,83.07
2019-02-16T04:52:38.088Z,83.10
2019-02-16T04:55:09.606Z,83.02
2019-02-16T04:57:40.451Z,82.67
2019-02-16T05:00:11.628Z,82.90
2019-02-16T05:02:42.538Z,82.85
2019-02-16T05:05:13.409Z,82.67
2019-02-16T05:07:44.297Z,82.60
2019-02-16T05:10:15.316Z,82.41
2019-02-16T05:12:46.189Z,83.17
2019-02-16T05:15:17.062Z,83.08
2019-02-16T05:17:47.657Z,83.31
2019-02-16T05:20:18.832Z,83.24
2019-02-16T05:22:49.628Z,82.54
2019-02-16T05:25:20.879Z,82.45
2019-02-16T05:27:51.709Z,83.02
2019-02-16T05:30:22.598Z,83.12
2019-02-16T05:32:53.442Z,83.21
2019-02-16T05:35:24.335Z,82.80
2019-02-16T05:37:55.292Z,82.86
2019-02-16T05:40:26.194Z,82.82
2019-02-16T05:42:57.235Z,82.37
2019-02-16T05:45:28.190Z,82.19
2019-02-16T05:47:59.069Z,82.28
2019-02-16T05:50:29.859Z,82.44
2019-02-16T05:53:00.850Z,82.05
2019-02-16T05:55:31.625Z,81.99
2019-02-16T05:58:02.502Z,82.36
2019-02-16T06:00:33.346Z,82.45
2019-02-16T06:03:04.280Z,82.78
2019-02-16T06:05:35.416Z,82.70
2019-02-16T06:08:06.220Z,82.55
2019-02-16T06:10:37.109Z,82.65
2019-02-16T06:13:07.989Z,82.82
2019-02-16T06:15:38.884Z,82.51
2019-02-16T06:18:09.804Z,82.67
2019-02-16T06:20:40.716Z,82.87
2019-02-16T06:23:11.594Z,82.53
2019-02-16T06:25:42.372Z,82.80
2019-02-16T06:28:13.208Z,82.69
2019-02-16T06:30:44.249Z,83.33
2019-02-16T06:33:15.090Z,83.45
2019-02-16T06:35:56.328Z,82.84
2019-02-16T06:38:27.307Z,83.09
2019-02-16T06:40:58.204Z,82.96
2019-02-16T06:43:29.097Z,83.02
2019-02-16T06:46:00.962Z,82.86
2019-02-16T06:48:31.832Z,83.61
2019-02-16T06:51:02.625Z,84.19
2019-02-16T06:53:33.517Z,84.09
2019-02-16T06:56:09.789Z,83.92
2019-02-16T06:58:40.785Z,83.70
2019-02-16T07:01:11.605Z,83.56
2019-02-16T07:03:42.488Z,83.07
2019-02-16T07:06:13.621Z,83.06
2019-02-16T07:08:44.442Z,84.29
2019-02-16T07:11:15.582Z,84.53
2019-02-16T07:13:46.529Z,84.07
2019-02-16T07:16:35.040Z,83.70
2019-02-16T07:19:24.717Z,83.70
2019-02-16T07:21:55.703Z,84.04
2019-02-16T07:24:26.718Z,84.02
2019-02-16T07:26:57.590Z,84.08
2019-02-16T07:29:28.370Z,83.77
2019-02-16T07:31:59.282Z,83.92
2019-02-16T07:34:30.155Z,83.78
2019-02-16T07:37:01.053Z,83.87
2019-02-16T07:39:31.940Z,83.56
2019-02-16T07:42:02.894Z,83.21
2019-02-16T07:44:52.639Z,83.37
2019-02-16T07:47:54.503Z,83.37
2019-02-16T07:50:44.282Z,82.88
2019-02-16T07:53:20.735Z,83.11
2019-02-16T07:56:09.103Z,82.60
2019-02-16T07:58:57.652Z,82.64
2019-02-16T08:01:46.149Z,84.04
2019-02-16T08:04:51.341Z,84.58
2019-02-16T08:07:43.918Z,83.69
2019-02-16T08:10:21.194Z,82.87
2019-02-16T08:12:58.976Z,83.42
2019-02-16T08:15:50.460Z,83.91
2019-02-16T08:18:49.284Z,83.88
2019-02-16T08:21:41.932Z,84.00
2019-02-16T08:24:29.869Z,83.34
2019-02-16T08:27:28.871Z,83.54
2019-02-16T08:30:15.985Z,83.52
2019-02-16T08:33:08.530Z,83.99
2019-02-16T08:35:57.081Z,84.37
2019-02-16T08:38:46.862Z,84.47
2019-02-16T08:41:26.812Z,84.47
2019-02-16T08:44:15.261Z,84.75
2019-02-16T08:46:55.927Z,84.34
2019-02-16T08:49:58.053Z,84.89
2019-02-16T08:52:47.878Z,85.38
2019-02-16T08:55:33.488Z,85.12
2019-02-16T08:58:14.844Z,85.14
2019-02-16T09:01:22.751Z,84.97
2019-02-16T09:04:15.501Z,84.42
2019-02-16T09:07:04.051Z,83.99
2019-02-16T09:09:47.080Z,83.82
2019-02-16T09:12:35.727Z,83.63
2019-02-16T09:15:35.137Z,83.30
2019-02-16T09:18:23.891Z,82.62
2019-02-16T09:21:14.134Z,82.41
2019-02-16T09:23:59.149Z,82.36
2019-02-16T09:26:50.773Z,82.26
2019-02-16T09:29:40.964Z,81.80
2019-02-16T09:32:29.618Z,81.16
2019-02-16T09:35:29.126Z,80.96
2019-02-16T09:38:31.398Z,80.96
2019-02-16T09:41:14.026Z,80.74
2019-02-16T09:44:02.871Z,80.34
2019-02-16T09:46:55.724Z,80.03
2019-02-16T09:49:45.507Z,79.13
2019-02-16T09:52:38.662Z,78.84
2019-02-16T09:55:17.998Z,78.82
2019-02-16T09:57:57.732Z,78.54
2019-02-16T10:00:47.627Z,78.81
2019-02-16T10:03:32.493Z,77.98
2019-02-16T10:06:34.368Z,77.61
2019-02-16T10:09:24.545Z,75.64
2019-02-16T10:12:22.524Z,73.93
2019-02-16T10:15:15.470Z,71.93
2019-02-16T10:18:06.788Z,70.01
2019-02-16T10:20:54.932Z,71.14
2019-02-16T10:23:44.590Z,70.47
2019-02-16T10:26:23.329Z,70.86
2019-02-16T10:29:11.881Z,68.63
2019-02-16T10:31:55.313Z,71.18
2019-02-16T10:34:42.534Z,70.86
2019-02-16T10:37:32.109Z,69.09
2019-02-16T10:40:22.001Z,69.85
2019-02-16T10:43:11.774Z,72.07
2019-02-16T10:46:06.980Z,71.51
2019-02-16T10:48:44.147Z,71.02
2019-02-16T10:51:49.100Z,70.62
2019-02-16T10:54:38.889Z,67.75
2019-02-16T10:57:28.765Z,66.36
2019-02-16T11:00:31.878Z,66.12
2019-02-16T11:03:20.511Z,67.35
2019-02-16T11:06:06.818Z,64.79
2019-02-16T11:08:56.694Z,63.41
2019-02-16T11:11:58.660Z,65.42
2019-02-16T11:14:54.585Z,61.28
2019-02-16T11:18:02.694Z,62.00
2019-02-16T11:20:51.451Z,61.79
2019-02-16T11:23:39.181Z,62.72
2019-02-16T11:26:38.234Z,61.84
2019-02-16T11:29:34.307Z,62.33
2019-02-16T11:32:24.189Z,62.36
2019-02-16T11:35:05.266Z,63.43
2019-02-16T11:37:41.111Z,64.98
2019-02-16T11:40:36.942Z,64.02
2019-02-16T11:43:19.890Z,64.30
2019-02-16T11:46:00.124Z,64.98
2019-02-16T11:48:46.008Z,65.18
2019-02-16T11:51:31.145Z,64.45
2019-02-16T11:54:13.077Z,64.05
2019-02-16T11:57:06.031Z,65.51
2019-02-16T11:59:49.771Z,62.68
2019-02-16T12:02:42.316Z,64.22
2019-02-16T12:05:32.300Z,63.59
2019-02-16T12:08:20.212Z,61.42
2019-02-16T12:11:10.056Z,62.54
2019-02-16T12:13:58.671Z,60.63
2019-02-16T12:17:03.916Z,61.13
2019-02-16T12:19:50.386Z,58.42
2019-02-16T12:22:26.616Z,60.99
2019-02-16T12:25:14.978Z,56.32
2019-02-16T12:28:10.645Z,57.63
2019-02-16T12:30:59.197Z,56.68
2019-02-16T12:33:51.948Z,56.64
2019-02-16T12:36:49.305Z,55.46
2019-02-16T12:39:33.145Z,55.14
2019-02-16T12:42:25.164Z,57.42
2019-02-16T12:45:14.960Z,55.92
2019-02-16T12:48:03.207Z,57.89
2019-02-16T12:50:45.204Z,57.16
2019-02-16T12:53:41.127Z,57.62
2019-02-16T12:56:29.677Z,56.27
2019-02-16T12:59:15.594Z,56.16
2019-02-16T13:02:04.658Z,56.11
2019-02-16T13:05:06.496Z,55.88
2019-02-16T13:07:48.706Z,56.65
2019-02-16T13:10:36.329Z,53.60
2019-02-16T13:13:41.085Z,53.25
2019-02-16T13:16:30.839Z,52.45
2019-02-16T13:19:34.972Z,52.25
2019-02-16T13:22:17.428Z,53.11
2019-02-16T13:25:00.516Z,52.72
2019-02-16T13:27:56.358Z,54.62
2019-02-16T13:30:43.398Z,53.77
2019-02-16T13:33:48.261Z,53.90
2019-02-16T13:36:38.041Z,54.66
2019-02-16T13:39:22.701Z,54.08
2019-02-16T13:42:11.150Z,55.09
2019-02-16T13:45:09.872Z,53.31
2019-02-16T13:47:54.929Z,54.00
2019-02-16T13:50:34.378Z,55.31
2019-02-16T13:53:23.106Z,56.71
2019-02-16T13:56:11.553Z,55.48
2019-02-16T13:59:00.721Z,56.51
2019-02-16T14:01:39.055Z,55.17
2019-02-16T14:04:37.106Z,58.67
2019-02-16T14:07:25.862Z,54.11
2019-02-16T14:10:08.913Z,59.55
2019-02-16T14:12:55.899Z,56.37
2019-02-16T14:15:34.828Z,57.11
2019-02-16T14:18:05.820Z,60.42
2019-02-16T14:20:38.609Z,58.83
2019-02-16T14:23:09.141Z,59.93
2019-02-16T14:25:49.743Z,60.81
2019-02-16T14:28:20.732Z,60.78
2019-02-16T14:30:51.640Z,60.24
2019-02-16T14:33:22.514Z,60.35
2019-02-16T14:35:53.294Z,58.91
2019-02-16T14:38:29.968Z,59.06
2019-02-16T14:41:00.896Z,58.29
2019-02-16T14:43:33.662Z,57.87
2019-02-16T14:46:04.434Z,56.62
2019-02-16T14:48:35.503Z,59.18
2019-02-16T14:51:06.407Z,57.55
2019-02-16T14:53:37.288Z,58.59
2019-02-16T14:56:08.173Z,58.59
2019-02-16T14:58:39.317Z,60.75
2019-02-16T15:01:10.273Z,59.92
2019-02-16T15:03:41.264Z,54.44
2019-02-16T15:06:12.040Z,56.49
2019-02-16T15:08:42.932Z,58.51
2019-02-16T15:11:13.806Z,58.63
2019-02-16T15:13:45.155Z,60.14
2019-02-16T15:16:16.102Z,59.81
2019-02-16T15:18:47.277Z,59.83
2019-02-16T15:21:18.069Z,60.05
2019-02-16T15:23:49.113Z,59.90
2019-02-16T15:26:28.101Z,59.63
2019-02-16T15:28:52.595Z,60.29
2019-02-16T15:31:23.372Z,58.28
2019-02-16T15:33:54.323Z,57.04
2019-02-16T15:36:25.153Z,57.61
2019-02-16T15:38:57.875Z,57.43
2019-02-16T15:41:28.669Z,59.02
2019-02-16T15:43:59.641Z,59.31
2019-02-16T15:46:30.433Z,60.08
2019-02-16T15:49:01.611Z,59.44
2019-02-16T15:51:34.800Z,60.28
2019-02-16T15:54:05.652Z,60.14
2019-02-16T15:56:36.540Z,59.85
2019-02-16T15:59:09.539Z,60.47
2019-02-16T16:01:40.290Z,60.34
2019-02-16T16:04:11.633Z,60.19
2019-02-16T16:06:42.713Z,60.38
2019-02-16T16:09:37.060Z,59.62
2019-02-16T16:12:36.957Z,59.70
2019-02-16T16:15:30.117Z,60.01
2019-02-16T16:18:18.718Z,59.99
2019-02-16T16:21:00.416Z,60.77
2019-02-16T16:23:48.784Z,60.21
2019-02-16T16:26:37.563Z,59.79
2019-02-16T16:29:26.219Z,60.49
2019-02-16T16:32:04.808Z,61.04
2019-02-16T16:35:03.403Z,60.40
2019-02-16T16:37:49.824Z,60.12
2019-02-16T16:40:28.156Z,59.89
2019-02-16T16:43:10.958Z,60.82
2019-02-16T16:45:59.711Z,60.44
2019-02-16T16:48:51.953Z,60.17
2019-02-16T16:51:41.830Z,60.14
2019-02-16T16:54:18.707Z,60.32
2019-02-16T16:57:14.428Z,60.73
2019-02-16T17:00:01.544Z,61.70
2019-02-16T17:02:53.065Z,62.89
2019-02-16T17:05:42.950Z,62.36
2019-02-16T17:08:21.803Z,62.29
2019-02-16T17:11:12.992Z,62.33
2019-02-16T17:14:12.767Z,62.56
2019-02-16T17:17:08.626Z,62.27
2019-02-16T17:19:58.379Z,62.64
2019-02-16T17:22:50.956Z,63.69
2019-02-16T17:25:46.875Z,64.39
2019-02-16T17:28:42.904Z,64.18
2019-02-16T17:31:22.440Z,65.11
2019-02-16T17:34:05.668Z,65.38
2019-02-16T17:36:47.518Z,65.97
2019-02-16T17:39:40.233Z,66.55
2019-02-16T17:42:22.414Z,67.80
2019-02-16T17:45:09.839Z,66.94
2019-02-16T17:48:06.583Z,66.90
2019-02-16T17:50:54.111Z,67.08
2019-02-16T17:53:49.830Z,67.14
2019-02-16T17:56:25.652Z,66.23
2019-02-16T17:59:11.339Z,65.88
2019-02-16T18:01:57.159Z,66.16
2019-02-16T18:04:39.150Z,66.23
2019-02-16T18:07:47.105Z,65.84
2019-02-16T18:10:35.915Z,64.96
2019-02-16T18:13:24.283Z,64.20
2019-02-16T18:16:16.909Z,64.39
2019-02-16T18:19:02.185Z,63.83
2019-02-16T18:21:47.153Z,64.38
2019-02-16T18:24:34.232Z,64.18
2019-02-16T18:27:27.019Z,65.20
2019-02-16T18:30:16.800Z,65.06
2019-02-16T18:33:12.929Z,65.35
2019-02-16T18:36:02.721Z,64.44
2019-02-16T18:39:01.603Z,64.04
2019-02-16T18:42:04.900Z,63.45
2019-02-16T18:45:01.566Z,65.28
2019-02-16T18:47:50.217Z,65.40
2019-02-16T18:50:35.984Z,65.62
2019-02-16T18:53:29.472Z,65.68
2019-02-16T18:56:19.597Z,66.31
2019-02-16T18:59:09.625Z,66.07
2019-02-16T19:02:05.672Z,66.40
2019-02-16T19:04:58.411Z,66.65
2019-02-16T19:07:43.952Z,66.90
2019-02-16T19:10:36.848Z,66.79
2019-02-16T19:13:25.231Z,66.73
2019-02-16T19:16:16.256Z,67.68
2019-02-16T19:19:05.461Z,67.56
2019-02-16T19:22:13.367Z,67.21
2019-02-16T19:25:05.913Z,66.96
2019-02-16T19:27:55.793Z,67.57
2019-02-16T19:30:44.347Z,68.04
2019-02-16T19:33:26.752Z,68.40
2019-02-16T19:36:19.709Z,68.48
2019-02-16T19:39:06.321Z,68.52
2019-02-16T19:41:48.619Z,68.86
2019-02-16T19:44:33.795Z,68.64
2019-02-16T19:47:26.611Z,69.06
2019-02-16T19:50:16.330Z,69.17
2019-02-16T19:53:12.655Z,69.16
2019-02-16T19:56:05.611Z,69.68
2019-02-16T19:58:54.060Z,69.53
2019-02-16T20:01:44.250Z,69.83
2019-02-16T20:04:43.454Z,70.45
2019-02-16T20:07:25.764Z,70.96
2019-02-16T20:10:06.832Z,71.39
2019-02-16T20:12:59.378Z,71.50
2019-02-16T20:15:49.161Z,71.51
2019-02-16T20:18:37.811Z,71.95
2019-02-16T20:21:26.262Z,71.60
2019-02-16T20:24:04.945Z,72.37
2019-02-16T20:27:00.807Z,73.15
2019-02-16T20:29:40.038Z,72.57
2019-02-16T20:32:29.818Z,73.01
2019-02-16T20:35:25.638Z,73.06
2019-02-16T20:38:14.396Z,73.06
2019-02-16T20:41:03.152Z,73.04
2019-02-16T20:44:05.019Z,72.80
2019-02-16T20:46:47.219Z,72.49
2019-02-16T20:49:52.087Z,72.91
2019-02-16T20:52:40.402Z,72.95
2019-02-16T20:55:16.560Z,72.97
2019-02-16T20:58:01.530Z,72.99
2019-02-16T21:00:54.488Z,73.29
2019-02-16T21:03:34.434Z,73.44
2019-02-16T21:06:30.055Z,73.08
2019-02-16T21:09:19.829Z,73.21
2019-02-16T21:12:21.590Z,73.26
2019-02-16T21:15:01.442Z,73.26
2019-02-16T21:18:09.597Z,73.20
2019-02-16T21:20:57.895Z,73.37
2019-02-16T21:23:46.453Z,73.27
2019-02-16T21:26:36.307Z,74.03
2019-02-16T21:29:12.918Z,74.23
2019-02-16T21:31:58.284Z,74.54
2019-02-16T21:34:53.774Z,74.74
2019-02-16T21:37:46.444Z,74.68
2019-02-16T21:40:29.979Z,74.47
2019-02-16T21:43:19.755Z,74.74
2019-02-16T21:46:15.585Z,74.57
2019-02-16T21:48:52.664Z,74.87
2019-02-16T21:51:42.380Z,74.66
2019-02-16T21:54:35.190Z,74.98
2019-02-16T21:57:25.176Z,75.61
2019-02-16T22:00:30.009Z,75.49
2019-02-16T22:03:31.416Z,75.32
2019-02-16T22:06:21.141Z,75.52
2019-02-16T22:09:09.794Z,75.77
2019-02-16T22:12:02.934Z,75.63
2019-02-16T22:14:33.843Z,75.79
2019-02-16T22:17:04.834Z,75.68
2019-02-16T22:19:36.006Z,75.93
2019-02-16T22:22:09.063Z,76.11
2019-02-16T22:24:40.122Z,76.15
2019-02-16T22:27:10.946Z,76.36
2019-02-16T22:29:41.939Z,76.48
2019-02-16T22:32:12.821Z,76.32
2019-02-16T22:34:43.716Z,76.31
2019-02-16T22:37:16.555Z,76.45
2019-02-16T22:39:47.610Z,76.52
2019-02-16T22:42:18.827Z,76.24
2019-02-16T22:44:49.710Z,76.40
2019-02-16T22:47:20.703Z,76.47
2019-02-16T22:49:51.878Z,76.68
2019-02-16T22:52:23.504Z,76.44
2019-02-16T22:54:54.303Z,76.59
2019-02-16T22:57:25.172Z,76.66
2019-02-16T22:59:56.344Z,77.04
2019-02-16T23:02:27.250Z,77.20
2019-02-16T23:04:58.260Z,77.20
2019-02-16T23:07:29.131Z,77.15
2019-02-16T23:10:00.259Z,77.35
2019-02-16T23:12:31.396Z,77.47
2019-02-16T23:15:02.700Z,77.13
2019-02-16T23:17:34.426Z,77.16
2019-02-16T23:20:05.951Z,77.64
2019-02-16T23:22:37.020Z,77.77
2019-02-16T23:25:08.116Z,77.92
2019-02-16T23:27:39.101Z,77.99
2019-02-16T23:30:10.490Z,77.71
2019-02-16T23:32:41.299Z,77.75
2019-02-16T23:35:12.397Z,77.86
2019-02-16T23:37:43.277Z,78.20
2019-02-16T23:40:14.248Z,78.24
2019-02-16T23:42:45.042Z,78.08
2019-02-16T23:45:17.342Z,78.03
2019-02-16T23:47:48.147Z,77.94
2019-02-16T23:50:18.975Z,77.77
2019-02-16T23:52:50.686Z,77.96
2019-02-16T23:55:21.594Z,78.16
2019-02-16T23:57:52.410Z,77.91
